logo
Search for airport 
image banner adimage banner adimage banner ad
image banner ad

UATT - Aktobe

Located in Aktobe, Kazakhstan

ICAO - UATT, IATA - AKX

Data provided by Airmate  

General information

Coordinates: N50°14'46" E57°12'20"
Elevation is 741 feet MSL.
Magnetic variation is 11° East
View others Airports in Aktobe

Operational data

Special qualification required
Current time UTC:
Current local time:
Weather
METAR: UATT 301800Z 18002MPS CAVOK 15/07 Q1019 NOSIG RMK QFE744/0992
TAF: TAF UATT 301700Z 3018/3118 27002MPS 9999 SCT040 TX29/3112Z TN10/3100Z TEMPO 3105/3116 32007MPS BKN033CB
View NOTAMs / SUP AIP / TFR affecting this airport [VIEW]
Communications frequencies: [VIEW]

Runways:

RWY identifierQFULength (ft)Width (ft)SurfaceLDA (ft)
12135°10505151CONC10505
30315°10505151CONC10505

Airport contact information

Address: Aktobe Kazakhstan

Satellite view of UATT